createdAt,value
2023-02-11T00:00:16.860Z,9.93
2023-02-11T00:02:46.853Z,9.73
2023-02-11T00:05:15.195Z,9.52
2023-02-11T00:07:42.150Z,9.93
2023-02-11T00:10:09.566Z,9.38
2023-02-11T00:12:37.651Z,9.07
2023-02-11T00:15:05.947Z,9.00
2023-02-11T00:17:36.498Z,9.02
2023-02-11T00:20:05.417Z,9.02
2023-02-11T00:22:33.694Z,8.38
2023-02-11T00:25:00.892Z,8.82
2023-02-11T00:27:27.911Z,9.50
2023-02-11T00:29:55.002Z,8.57
2023-02-11T00:32:22.009Z,7.55
2023-02-11T00:34:52.669Z,7.93
2023-02-11T00:37:19.788Z,7.97
2023-02-11T00:39:47.130Z,8.18
2023-02-11T00:42:15.856Z,8.63
2023-02-11T00:44:43.471Z,8.32
2023-02-11T00:47:10.608Z,8.60
2023-02-11T00:49:39.678Z,8.93
2023-02-11T00:52:07.214Z,9.23
2023-02-11T00:54:34.099Z,8.80
2023-02-11T00:57:00.891Z,9.15
2023-02-11T00:59:27.918Z,8.75
2023-02-11T01:01:55.037Z,9.25
2023-02-11T01:04:22.909Z,9.52
2023-02-11T01:06:49.785Z,8.95
2023-02-11T01:09:16.736Z,9.82
2023-02-11T01:11:45.242Z,9.50
2023-02-11T01:14:12.327Z,9.43
2023-02-11T01:16:39.304Z,9.60
2023-02-11T01:19:06.738Z,9.63
2023-02-11T01:21:33.538Z,9.60
2023-02-11T01:24:00.433Z,8.93
2023-02-11T01:26:27.433Z,8.93
2023-02-11T01:28:54.426Z,8.10
2023-02-11T01:31:21.346Z,8.38
2023-02-11T01:33:49.202Z,9.77
2023-02-11T01:36:16.170Z,9.23
2023-02-11T01:38:44.639Z,9.45
2023-02-11T01:41:14.905Z,8.00
2023-02-11T01:43:48.212Z,9.32
2023-02-11T01:46:37.367Z,9.18
2023-02-11T01:49:14.869Z,8.70
2023-02-11T01:51:51.122Z,9.15
2023-02-11T01:54:40.890Z,9.05
2023-02-11T01:57:25.258Z,9.27
2023-02-11T02:00:13.227Z,8.65
2023-02-11T02:02:58.379Z,8.23
2023-02-11T02:05:39.339Z,8.70
2023-02-11T02:08:36.924Z,9.52
2023-02-11T02:11:04.094Z,9.60
2023-02-11T02:13:33.275Z,9.00
2023-02-11T02:16:01.809Z,9.27
2023-02-11T02:18:55.388Z,9.23
2023-02-11T02:21:43.437Z,9.30
2023-02-11T02:24:22.570Z,8.82
2023-02-11T02:26:55.238Z,9.30
2023-02-11T02:29:51.838Z,9.18
2023-02-11T02:32:47.309Z,9.27
2023-02-11T02:35:29.586Z,10.60
2023-02-11T02:38:11.731Z,9.32
2023-02-11T02:40:38.526Z,9.57
2023-02-11T02:43:09.059Z,9.30
2023-02-11T02:45:35.859Z,9.10
2023-02-11T02:48:03.031Z,9.95
2023-02-11T02:50:34.033Z,10.27
2023-02-11T02:53:16.971Z,9.35
2023-02-11T02:56:06.824Z,9.45
2023-02-11T02:58:58.014Z,10.45
2023-02-11T03:01:39.839Z,9.60
2023-02-11T03:04:28.935Z,10.90
2023-02-11T03:07:26.958Z,10.35
2023-02-11T03:10:08.027Z,9.15
2023-02-11T03:12:36.095Z,10.02
2023-02-11T03:15:05.803Z,9.20
2023-02-11T03:17:35.803Z,10.05
2023-02-11T03:20:07.051Z,9.45
2023-02-11T03:22:43.245Z,9.57
2023-02-11T03:25:10.211Z,9.88
2023-02-11T03:27:47.468Z,10.85
2023-02-11T03:30:22.461Z,10.20
2023-02-11T03:32:55.234Z,9.55
2023-02-11T03:35:28.122Z,10.07
2023-02-11T03:38:09.518Z,10.25
2023-02-11T03:40:39.800Z,9.73
2023-02-11T03:43:44.630Z,9.45
2023-02-11T03:46:14.434Z,8.80
2023-02-11T03:48:49.610Z,9.10
2023-02-11T03:51:17.389Z,9.52
2023-02-11T03:53:46.776Z,8.88
2023-02-11T03:56:21.427Z,8.70
2023-02-11T03:58:49.144Z,9.15
2023-02-11T04:01:16.922Z,10.02
2023-02-11T04:03:46.624Z,9.88
2023-02-11T04:06:13.969Z,9.38
2023-02-11T04:08:41.157Z,9.10
2023-02-11T04:11:11.089Z,9.50
2023-02-11T04:13:38.158Z,9.90
2023-02-11T04:16:05.446Z,9.88
2023-02-11T04:18:32.488Z,10.05
2023-02-11T04:20:59.416Z,9.85
2023-02-11T04:23:26.387Z,10.32
2023-02-11T04:25:53.430Z,10.23
2023-02-11T04:28:20.794Z,10.35
2023-02-11T04:30:50.847Z,9.57
2023-02-11T04:33:18.184Z,10.50
2023-02-11T04:35:45.496Z,10.60
2023-02-11T04:38:12.465Z,10.27
2023-02-11T04:40:39.725Z,10.85
2023-02-11T04:43:07.145Z,10.77
2023-02-11T04:45:34.372Z,9.77
2023-02-11T04:48:04.662Z,11.05
2023-02-11T04:50:31.800Z,11.20
2023-02-11T04:52:58.890Z,11.57
2023-02-11T04:55:25.967Z,9.98
2023-02-11T04:57:52.823Z,10.68
2023-02-11T05:00:19.941Z,9.65
2023-02-11T05:02:47.052Z,10.02
2023-02-11T05:05:14.606Z,9.82
2023-02-11T05:07:41.451Z,10.35
2023-02-11T05:10:08.645Z,9.88
2023-02-11T05:12:35.504Z,10.88
2023-02-11T05:15:02.567Z,10.60
2023-02-11T05:17:29.504Z,11.07
2023-02-11T05:19:56.485Z,11.85
2023-02-11T05:22:23.455Z,10.63
2023-02-11T05:24:50.597Z,10.73
2023-02-11T05:27:17.682Z,10.80
2023-02-11T05:29:44.721Z,11.15
2023-02-11T05:32:12.268Z,11.77
2023-02-11T05:34:39.299Z,12.07
2023-02-11T05:37:06.823Z,11.48
2023-02-11T05:39:33.790Z,11.02
2023-02-11T05:42:00.683Z,10.93
2023-02-11T05:44:27.540Z,11.90
2023-02-11T05:46:54.399Z,10.93
2023-02-11T05:49:21.529Z,11.65
2023-02-11T05:51:48.810Z,10.32
2023-02-11T05:54:15.881Z,11.25
2023-02-11T05:56:44.797Z,11.63
2023-02-11T05:59:14.967Z,11.40
2023-02-11T06:01:41.886Z,11.85
2023-02-11T06:04:09.265Z,12.35
2023-02-11T06:06:36.694Z,12.27
2023-02-11T06:09:04.567Z,13.00
2023-02-11T06:11:31.767Z,13.85
2023-02-11T06:13:58.692Z,13.45
2023-02-11T06:16:25.615Z,14.35
2023-02-11T06:18:52.695Z,14.55
2023-02-11T06:21:19.637Z,15.30
2023-02-11T06:23:46.637Z,16.73
2023-02-11T06:26:19.780Z,16.98
2023-02-11T06:28:47.136Z,16.65
2023-02-11T06:31:14.137Z,16.35
2023-02-11T06:33:41.084Z,16.75
2023-02-11T06:36:20.809Z,16.17
2023-02-11T06:38:48.436Z,16.58
2023-02-11T06:41:17.941Z,14.73
2023-02-11T06:43:44.905Z,17.58
2023-02-11T06:46:12.371Z,19.45
2023-02-11T06:48:39.699Z,18.10
2023-02-11T06:51:13.142Z,19.88
2023-02-11T06:53:43.838Z,17.27
2023-02-11T06:56:13.575Z,19.30
2023-02-11T06:58:40.843Z,15.63
2023-02-11T07:01:10.005Z,17.40
2023-02-11T07:03:39.739Z,18.50
2023-02-11T07:06:08.370Z,17.00
2023-02-11T07:08:37.117Z,16.05
2023-02-11T07:11:19.191Z,15.93
2023-02-11T07:13:46.516Z,15.95
2023-02-11T07:16:16.756Z,14.95
2023-02-11T07:18:44.308Z,16.48
2023-02-11T07:21:13.357Z,14.70
2023-02-11T07:23:41.285Z,15.93
2023-02-11T07:26:14.120Z,16.48
2023-02-11T07:28:41.858Z,15.85
2023-02-11T07:31:09.217Z,16.30
2023-02-11T07:33:37.036Z,15.93
2023-02-11T07:36:06.116Z,15.70
2023-02-11T07:38:34.490Z,15.60
2023-02-11T07:41:02.369Z,16.20
2023-02-11T07:43:29.365Z,15.40
2023-02-11T07:45:56.636Z,16.80
2023-02-11T07:48:23.775Z,16.35
2023-02-11T07:50:50.845Z,17.25
2023-02-11T07:53:17.885Z,16.92
2023-02-11T07:55:44.904Z,17.00
2023-02-11T07:58:12.005Z,16.77
2023-02-11T08:00:39.124Z,17.58
2023-02-11T08:03:08.429Z,16.65
2023-02-11T08:05:39.374Z,16.85
2023-02-11T08:08:06.432Z,19.50
2023-02-11T08:10:33.247Z,18.05
2023-02-11T08:13:00.205Z,17.30
2023-02-11T08:15:27.291Z,17.02
2023-02-11T08:17:54.158Z,17.23
2023-02-11T08:20:21.103Z,17.65
2023-02-11T08:22:47.903Z,18.25
2023-02-11T08:25:14.974Z,18.55
2023-02-11T08:27:41.914Z,19.17
2023-02-11T08:30:09.626Z,17.63
2023-02-11T08:32:36.585Z,17.73
2023-02-11T08:35:03.503Z,18.63
2023-02-11T08:37:32.918Z,18.45
2023-02-11T08:40:01.162Z,17.95
2023-02-11T08:42:27.973Z,18.85
2023-02-11T08:44:54.908Z,20.02
2023-02-11T08:47:21.871Z,20.65
2023-02-11T08:49:48.737Z,20.13
2023-02-11T08:52:15.769Z,20.60
2023-02-11T08:54:42.594Z,20.70
2023-02-11T08:57:09.477Z,20.27
2023-02-11T08:59:36.611Z,20.65
2023-02-11T09:02:03.509Z,21.70
2023-02-11T09:04:31.518Z,20.50
2023-02-11T09:06:58.435Z,21.95
2023-02-11T09:09:25.372Z,21.33
2023-02-11T09:11:57.183Z,21.67
2023-02-11T09:14:25.100Z,22.00
2023-02-11T09:16:53.229Z,22.30
2023-02-11T09:19:21.076Z,22.10
2023-02-11T09:21:48.012Z,22.42
2023-02-11T09:24:15.873Z,22.15
2023-02-11T09:26:43.725Z,22.00
2023-02-11T09:29:10.689Z,21.95
2023-02-11T09:31:37.827Z,22.95
2023-02-11T09:34:06.754Z,23.67
2023-02-11T09:36:37.758Z,22.02
2023-02-11T09:39:07.711Z,24.52
2023-02-11T09:42:06.459Z,24.05
2023-02-11T09:44:35.793Z,22.80
2023-02-11T09:47:26.990Z,23.67
2023-02-11T09:50:13.397Z,22.70
2023-02-11T09:52:57.325Z,22.30
2023-02-11T09:55:31.936Z,22.30
2023-02-11T09:57:58.886Z,22.67
2023-02-11T10:00:36.794Z,22.40
2023-02-11T10:03:28.068Z,21.52
2023-02-11T10:06:13.493Z,21.20
2023-02-11T10:09:04.743Z,19.92
2023-02-11T10:11:34.536Z,21.05
2023-02-11T10:14:16.734Z,20.33
2023-02-11T10:17:02.609Z,20.52
2023-02-11T10:19:41.412Z,18.95
2023-02-11T10:22:11.364Z,20.02
2023-02-11T10:24:41.480Z,20.05
2023-02-11T10:27:21.194Z,19.60
2023-02-11T10:29:59.148Z,18.98
2023-02-11T10:32:43.202Z,20.73
2023-02-11T10:35:18.380Z,18.48
2023-02-11T10:37:45.880Z,19.85
2023-02-11T10:40:19.376Z,19.98
2023-02-11T10:42:52.026Z,19.25
2023-02-11T10:45:30.992Z,20.98
2023-02-11T10:47:59.616Z,19.23
2023-02-11T10:50:35.213Z,19.38
2023-02-11T10:53:24.650Z,19.35
2023-02-11T10:55:57.460Z,19.48
2023-02-11T10:59:01.656Z,18.23
2023-02-11T11:02:06.071Z,17.42
2023-02-11T11:04:35.458Z,17.10
2023-02-11T11:07:29.977Z,18.10
2023-02-11T11:10:02.973Z,18.23
2023-02-11T11:12:36.813Z,15.90
2023-02-11T11:15:18.334Z,16.73
2023-02-11T11:17:46.273Z,16.25
2023-02-11T11:20:36.307Z,16.35
2023-02-11T11:23:21.668Z,16.70
2023-02-11T11:26:07.641Z,15.95
2023-02-11T11:28:51.532Z,16.60
2023-02-11T11:31:46.258Z,16.08
2023-02-11T11:34:41.920Z,17.00
2023-02-11T11:37:24.747Z,16.63
2023-02-11T11:40:22.540Z,16.48
2023-02-11T11:43:03.684Z,15.52
2023-02-11T11:45:30.816Z,14.35
2023-02-11T11:48:06.678Z,16.40
2023-02-11T11:50:42.869Z,17.60
2023-02-11T11:53:21.997Z,17.10
2023-02-11T11:56:12.439Z,16.60
2023-02-11T11:58:39.626Z,17.02
2023-02-11T12:01:31.805Z,16.80
2023-02-11T12:04:21.875Z,17.55
2023-02-11T12:07:00.765Z,17.75
2023-02-11T12:09:58.674Z,17.77
2023-02-11T12:12:34.524Z,18.00
2023-02-11T12:15:43.030Z,18.13
2023-02-11T12:18:38.752Z,17.75
2023-02-11T12:21:29.546Z,17.48
2023-02-11T12:24:30.081Z,17.33
2023-02-11T12:27:00.219Z,16.92
2023-02-11T12:29:41.624Z,18.45
2023-02-11T12:32:36.312Z,18.33
2023-02-11T12:35:09.094Z,17.77
2023-02-11T12:37:57.940Z,16.58
2023-02-11T12:41:03.339Z,17.90
2023-02-11T12:43:44.632Z,18.80
2023-02-11T12:46:21.220Z,18.90
2023-02-11T12:48:56.843Z,19.98
2023-02-11T12:51:52.425Z,19.02
2023-02-11T12:54:59.560Z,19.95
2023-02-11T12:57:29.382Z,20.27
2023-02-11T13:00:28.607Z,20.52
2023-02-11T13:03:12.588Z,20.08
2023-02-11T13:05:59.895Z,19.20
2023-02-11T13:08:44.233Z,21.63
2023-02-11T13:11:24.507Z,21.30
2023-02-11T13:13:57.134Z,22.45
2023-02-11T13:16:43.613Z,22.48
2023-02-11T13:19:13.591Z,22.45
2023-02-11T13:22:01.923Z,24.42
2023-02-11T13:24:44.508Z,22.70
2023-02-11T13:27:34.959Z,22.92
2023-02-11T13:30:24.218Z,22.88
2023-02-11T13:32:57.177Z,22.10
2023-02-11T13:35:39.990Z,21.35
2023-02-11T13:38:21.631Z,20.73
2023-02-11T13:41:06.051Z,21.10
2023-02-11T13:43:35.689Z,20.50
2023-02-11T13:46:10.413Z,21.05
2023-02-11T13:48:44.600Z,20.95
2023-02-11T13:51:15.324Z,21.73
2023-02-11T13:53:53.175Z,20.77
2023-02-11T13:56:38.730Z,21.08
2023-02-11T13:59:25.530Z,21.02
2023-02-11T14:02:41.945Z,21.75
2023-02-11T14:05:38.038Z,26.13
2023-02-11T14:08:29.348Z,22.52
2023-02-11T14:11:12.432Z,21.98
2023-02-11T14:13:48.418Z,21.70
2023-02-11T14:16:22.691Z,20.23
2023-02-11T14:18:55.150Z,20.92
2023-02-11T14:21:34.459Z,19.15
2023-02-11T14:24:01.542Z,18.50
2023-02-11T14:26:50.245Z,20.52
2023-02-11T14:29:20.472Z,19.27
2023-02-11T14:32:15.354Z,19.08
2023-02-11T14:35:30.560Z,19.42
2023-02-11T14:38:15.475Z,19.38
2023-02-11T14:40:50.801Z,19.05
2023-02-11T14:43:22.876Z,20.27
2023-02-11T14:45:58.160Z,20.23
2023-02-11T14:48:36.754Z,20.05
2023-02-11T14:51:10.579Z,19.90
2023-02-11T14:53:40.901Z,20.45
2023-02-11T14:56:26.450Z,21.65
2023-02-11T14:58:54.901Z,22.27
2023-02-11T15:01:35.460Z,20.55
2023-02-11T15:04:05.461Z,22.35
2023-02-11T15:06:34.726Z,20.80
2023-02-11T15:09:06.516Z,21.45
2023-02-11T15:11:41.071Z,20.73
2023-02-11T15:14:27.090Z,21.48
2023-02-11T15:16:57.353Z,21.10
2023-02-11T15:19:48.311Z,20.60
2023-02-11T15:22:22.527Z,20.63
2023-02-11T15:25:20.207Z,21.42
2023-02-11T15:27:52.882Z,20.65
2023-02-11T15:30:22.870Z,20.10
2023-02-11T15:32:59.886Z,22.27
2023-02-11T15:35:32.636Z,21.83
2023-02-11T15:38:00.047Z,20.83
2023-02-11T15:40:34.828Z,21.33
2023-02-11T15:43:04.451Z,21.02
2023-02-11T15:45:34.822Z,20.00
2023-02-11T15:48:14.979Z,21.60
2023-02-11T15:50:43.427Z,20.42
2023-02-11T15:53:28.663Z,19.67
2023-02-11T15:56:20.198Z,20.95
2023-02-11T15:58:49.517Z,20.17
2023-02-11T16:01:16.587Z,19.73
2023-02-11T16:03:44.636Z,19.25
2023-02-11T16:06:26.624Z,20.42
2023-02-11T16:09:05.921Z,21.33
2023-02-11T16:11:36.580Z,19.15
2023-02-11T16:14:32.761Z,20.55
2023-02-11T16:17:02.270Z,19.45
2023-02-11T16:19:29.834Z,19.38
2023-02-11T16:21:58.672Z,20.20
2023-02-11T16:24:31.954Z,19.92
2023-02-11T16:27:03.976Z,19.25
2023-02-11T16:29:33.353Z,20.52
2023-02-11T16:32:16.204Z,18.75
2023-02-11T16:34:43.581Z,19.75
2023-02-11T16:37:10.704Z,20.33
2023-02-11T16:39:37.892Z,22.15
2023-02-11T16:42:07.695Z,21.58
2023-02-11T16:44:35.300Z,21.50
2023-02-11T16:47:03.560Z,23.08
2023-02-11T16:49:32.832Z,21.63
2023-02-11T16:52:01.904Z,21.45
2023-02-11T16:54:30.516Z,21.92
2023-02-11T16:56:57.565Z,22.60
2023-02-11T16:59:25.154Z,21.80
2023-02-11T17:01:55.242Z,21.42
2023-02-11T17:04:26.722Z,19.88
2023-02-11T17:06:54.239Z,21.40
2023-02-11T17:09:30.306Z,20.95
2023-02-11T17:11:57.736Z,21.05
2023-02-11T17:14:24.711Z,26.80
2023-02-11T17:16:51.736Z,23.50
2023-02-11T17:19:23.363Z,22.45
2023-02-11T17:21:52.613Z,22.80
2023-02-11T17:24:20.945Z,23.50
2023-02-11T17:26:49.075Z,24.95
2023-02-11T17:29:19.925Z,27.10
2023-02-11T17:31:47.206Z,23.98
2023-02-11T17:34:14.325Z,24.33
2023-02-11T17:36:43.992Z,23.88
2023-02-11T17:39:11.740Z,24.50
2023-02-11T17:41:40.101Z,20.42
2023-02-11T17:44:08.916Z,22.38
2023-02-11T17:46:36.305Z,23.80
2023-02-11T17:49:04.357Z,22.92
2023-02-11T17:51:35.870Z,21.48
2023-02-11T17:54:06.280Z,22.02
2023-02-11T17:56:35.091Z,21.35
2023-02-11T17:59:02.955Z,21.70
2023-02-11T18:01:31.934Z,20.90
2023-02-11T18:03:59.294Z,21.52
2023-02-11T18:06:27.050Z,20.80
2023-02-11T18:08:56.887Z,22.52
2023-02-11T18:11:28.017Z,22.42
2023-02-11T18:13:54.981Z,20.67
2023-02-11T18:16:23.295Z,21.17
2023-02-11T18:18:50.810Z,22.95
2023-02-11T18:21:20.307Z,22.58
2023-02-11T18:23:48.437Z,22.23
2023-02-11T18:26:17.555Z,23.13
2023-02-11T18:28:46.122Z,22.15
2023-02-11T18:31:14.364Z,23.65
2023-02-11T18:33:42.410Z,21.42
2023-02-11T18:36:12.571Z,22.85
2023-02-11T18:38:40.234Z,20.35
2023-02-11T18:41:07.847Z,21.33
2023-02-11T18:43:35.701Z,21.73
2023-02-11T18:46:08.609Z,22.83
2023-02-11T18:48:35.763Z,21.50
2023-02-11T18:51:02.784Z,21.65
2023-02-11T18:53:29.870Z,21.70
2023-02-11T18:55:56.788Z,20.17
2023-02-11T18:58:23.735Z,20.48
2023-02-11T19:00:50.913Z,19.77
2023-02-11T19:03:18.554Z,20.80
2023-02-11T19:05:48.238Z,21.83
2023-02-11T19:08:16.049Z,19.90
2023-02-11T19:10:45.433Z,21.25
2023-02-11T19:13:13.475Z,19.92
2023-02-11T19:15:44.775Z,21.85
2023-02-11T19:18:13.563Z,21.52
2023-02-11T19:20:42.386Z,20.75
2023-02-11T19:23:09.369Z,21.05
2023-02-11T19:25:36.594Z,20.27
2023-02-11T19:28:03.517Z,21.02
2023-02-11T19:30:30.846Z,20.65
2023-02-11T19:32:57.918Z,19.52
2023-02-11T19:35:25.420Z,19.65
2023-02-11T19:37:52.577Z,20.02
2023-02-11T19:40:21.305Z,19.77
2023-02-11T19:42:48.584Z,20.45
2023-02-11T19:45:15.845Z,21.42
2023-02-11T19:47:42.644Z,21.73
2023-02-11T19:50:10.154Z,22.23
2023-02-11T19:52:40.862Z,22.20
2023-02-11T19:55:08.807Z,21.02
2023-02-11T19:57:36.610Z,21.70
2023-02-11T20:00:05.712Z,24.02
2023-02-11T20:02:32.703Z,25.75
2023-02-11T20:05:00.080Z,23.88
2023-02-11T20:07:27.572Z,23.83
2023-02-11T20:09:54.696Z,24.08
2023-02-11T20:12:21.644Z,21.88
2023-02-11T20:14:48.605Z,22.15
2023-02-11T20:17:15.628Z,22.77
2023-02-11T20:19:42.620Z,22.48
2023-02-11T20:22:09.869Z,22.05
2023-02-11T20:24:36.883Z,20.77
2023-02-11T20:27:03.867Z,20.45
2023-02-11T20:29:31.896Z,21.25
2023-02-11T20:31:58.814Z,21.25
2023-02-11T20:34:25.944Z,21.45
2023-02-11T20:36:53.105Z,22.17
2023-02-11T20:39:23.921Z,22.10
2023-02-11T20:41:51.869Z,21.30
2023-02-11T20:44:19.641Z,22.33
2023-02-11T20:46:46.795Z,21.60
2023-02-11T20:49:20.851Z,21.20
2023-02-11T20:51:48.295Z,22.30
2023-02-11T20:54:17.807Z,22.92
2023-02-11T20:56:47.988Z,23.45
2023-02-11T20:59:16.842Z,23.50
2023-02-11T21:01:47.948Z,21.52
2023-02-11T21:04:18.332Z,21.95
2023-02-11T21:06:48.058Z,21.98
2023-02-11T21:09:17.541Z,22.98
2023-02-11T21:11:44.357Z,23.40
2023-02-11T21:14:12.174Z,22.63
2023-02-11T21:16:39.954Z,21.40
2023-02-11T21:19:07.404Z,21.98
2023-02-11T21:21:36.382Z,23.42
2023-02-11T21:24:04.330Z,22.92
2023-02-11T21:26:31.508Z,22.98
2023-02-11T21:28:58.680Z,22.38
2023-02-11T21:31:28.981Z,22.30
2023-02-11T21:33:56.890Z,23.25
2023-02-11T21:36:24.472Z,22.73
2023-02-11T21:38:51.834Z,22.38
2023-02-11T21:41:22.514Z,23.55
2023-02-11T21:43:50.703Z,23.45
2023-02-11T21:46:18.854Z,22.90
2023-02-11T21:49:15.161Z,24.02
2023-02-11T21:51:42.491Z,24.98
2023-02-11T21:54:11.735Z,23.48
2023-02-11T21:56:38.831Z,23.77
2023-02-11T21:59:05.766Z,23.05
2023-02-11T22:01:35.615Z,22.30
2023-02-11T22:04:04.204Z,24.48
2023-02-11T22:06:34.625Z,23.42
2023-02-11T22:09:06.802Z,21.17
2023-02-11T22:11:34.146Z,20.05
2023-02-11T22:14:01.116Z,21.80
2023-02-11T22:16:29.214Z,22.33
2023-02-11T22:19:00.284Z,22.40
2023-02-11T22:21:28.657Z,23.50
2023-02-11T22:23:56.201Z,21.60
2023-02-11T22:26:24.808Z,22.85
2023-02-11T22:28:52.116Z,21.40
2023-02-11T22:31:22.031Z,22.10
2023-02-11T22:33:51.941Z,22.40
2023-02-11T22:36:27.813Z,22.55
2023-02-11T22:38:55.500Z,22.40
2023-02-11T22:41:23.332Z,22.80
2023-02-11T22:43:56.821Z,22.58
2023-02-11T22:46:24.278Z,23.42
2023-02-11T22:48:51.329Z,22.40
2023-02-11T22:51:24.431Z,23.40
2023-02-11T22:53:53.699Z,24.77
2023-02-11T22:56:21.457Z,24.60
2023-02-11T22:58:48.964Z,23.40
2023-02-11T23:01:16.394Z,24.40
2023-02-11T23:03:43.479Z,22.90
2023-02-11T23:06:11.735Z,24.17
2023-02-11T23:08:40.277Z,23.20
2023-02-11T23:11:16.516Z,23.42
2023-02-11T23:13:44.404Z,23.75
2023-02-11T23:16:15.142Z,21.50
2023-02-11T23:18:52.469Z,18.42
2023-02-11T23:21:26.081Z,18.60
2023-02-11T23:24:01.728Z,18.20
2023-02-11T23:26:29.272Z,18.35
2023-02-11T23:28:57.529Z,17.85
2023-02-11T23:31:30.783Z,19.98
2023-02-11T23:33:57.930Z,20.98
2023-02-11T23:36:24.860Z,19.55
2023-02-11T23:38:51.903Z,20.58
2023-02-11T23:41:19.384Z,20.50
2023-02-11T23:43:54.630Z,19.80
2023-02-11T23:46:22.636Z,19.40
2023-02-11T23:48:52.116Z,20.13
2023-02-11T23:51:19.607Z,19.65
2023-02-11T23:53:49.290Z,21.13
2023-02-11T23:56:22.073Z,20.67
2023-02-11T23:58:50.402Z,18.77
